createdAt,value
2018-08-13T00:00:58.284Z,0.00
2018-08-13T00:01:58.272Z,0.00
2018-08-13T00:02:58.254Z,0.00
2018-08-13T00:03:58.249Z,0.00
2018-08-13T00:04:58.231Z,0.00
2018-08-13T00:05:58.221Z,0.00
2018-08-13T00:06:58.208Z,0.00
2018-08-13T00:07:58.199Z,0.00
2018-08-13T00:08:58.190Z,0.00
2018-08-13T00:09:58.176Z,0.00
2018-08-13T00:10:58.167Z,0.00
2018-08-13T00:11:58.155Z,0.00
2018-08-13T00:12:58.144Z,0.00
2018-08-13T00:13:58.133Z,0.00
2018-08-13T00:14:58.121Z,0.00
2018-08-13T00:15:58.112Z,0.00
2018-08-13T00:16:58.100Z,0.00
2018-08-13T00:17:58.091Z,0.00
2018-08-13T00:18:58.080Z,0.00
2018-08-13T00:19:58.072Z,0.00
2018-08-13T00:20:58.059Z,0.00
2018-08-13T00:21:58.049Z,0.00
2018-08-13T00:22:58.039Z,0.00
2018-08-13T00:23:58.027Z,0.00
2018-08-13T00:24:58.017Z,0.00
2018-08-13T00:25:58.008Z,0.00
2018-08-13T00:26:57.993Z,0.00
2018-08-13T00:27:57.980Z,0.00
2018-08-13T00:28:57.967Z,0.00
2018-08-13T00:29:57.961Z,0.00
2018-08-13T00:30:57.944Z,0.00
2018-08-13T00:31:57.935Z,0.00
2018-08-13T00:32:57.925Z,0.00
2018-08-13T00:33:57.915Z,0.00
2018-08-13T00:34:57.902Z,0.00
2018-08-13T00:35:57.891Z,0.00
2018-08-13T00:36:57.880Z,0.00
2018-08-13T00:37:57.870Z,0.00
2018-08-13T00:38:57.861Z,0.00
2018-08-13T00:39:57.850Z,0.00
2018-08-13T00:40:57.836Z,0.00
2018-08-13T00:41:57.825Z,0.00
2018-08-13T00:42:57.818Z,0.00
2018-08-13T00:43:57.811Z,0.00
2018-08-13T00:44:57.792Z,0.00
2018-08-13T00:45:57.782Z,0.00
2018-08-13T00:46:57.771Z,0.00
2018-08-13T00:47:57.757Z,0.00
2018-08-13T00:48:57.747Z,0.00
2018-08-13T00:49:57.738Z,0.00
2018-08-13T00:50:57.725Z,0.00
2018-08-13T00:51:57.717Z,0.00
2018-08-13T00:52:57.703Z,0.00
2018-08-13T00:53:57.695Z,0.00
2018-08-13T00:54:57.681Z,0.00
2018-08-13T00:55:57.672Z,0.00
2018-08-13T00:56:57.662Z,0.00
2018-08-13T00:57:57.650Z,0.00
2018-08-13T00:58:57.639Z,0.00
2018-08-13T00:59:57.627Z,0.00
2018-08-13T01:00:57.620Z,0.00
2018-08-13T01:01:57.607Z,0.00
2018-08-13T01:02:57.594Z,0.00
2018-08-13T01:03:57.588Z,0.00
2018-08-13T01:04:57.572Z,0.00
2018-08-13T01:05:57.561Z,0.00
2018-08-13T01:06:57.552Z,0.00
2018-08-13T01:07:57.546Z,0.00
2018-08-13T01:08:57.528Z,0.00
2018-08-13T01:09:57.518Z,0.00
2018-08-13T01:10:57.514Z,0.00
2018-08-13T01:11:57.494Z,0.00
2018-08-13T01:12:57.484Z,0.00
2018-08-13T01:13:57.476Z,0.00
2018-08-13T01:14:57.463Z,0.00
2018-08-13T01:15:57.451Z,0.00
2018-08-13T01:16:57.438Z,0.00
2018-08-13T01:17:57.431Z,0.00
2018-08-13T01:18:57.415Z,0.00
2018-08-13T01:19:57.410Z,0.00
2018-08-13T01:20:57.395Z,0.00
2018-08-13T01:21:57.383Z,0.00
2018-08-13T01:22:57.374Z,0.00
2018-08-13T01:23:57.363Z,0.00
2018-08-13T01:24:57.349Z,0.00
2018-08-13T01:25:57.339Z,0.00
2018-08-13T01:26:57.326Z,0.00
2018-08-13T01:27:57.313Z,0.00
2018-08-13T01:28:57.308Z,0.00
2018-08-13T01:29:57.301Z,0.00
2018-08-13T01:30:57.282Z,0.00
2018-08-13T01:31:57.274Z,0.00
2018-08-13T01:32:57.260Z,0.00
2018-08-13T01:33:57.251Z,0.00
2018-08-13T01:34:57.236Z,0.00
2018-08-13T01:35:57.224Z,0.00
2018-08-13T01:36:57.212Z,0.00
2018-08-13T01:37:57.206Z,0.00
2018-08-13T01:38:57.190Z,0.00
2018-08-13T01:39:57.183Z,0.00
2018-08-13T01:40:57.167Z,0.00
2018-08-13T01:41:57.166Z,0.00
2018-08-13T01:42:57.147Z,0.00
2018-08-13T01:43:57.132Z,0.00
2018-08-13T01:44:57.125Z,0.00
2018-08-13T01:45:57.110Z,0.00
2018-08-13T01:46:57.103Z,0.00
2018-08-13T01:47:57.087Z,0.00
2018-08-13T01:48:57.076Z,0.00
2018-08-13T01:49:57.065Z,0.00
2018-08-13T01:50:57.053Z,0.00
2018-08-13T01:51:57.043Z,0.00
2018-08-13T01:52:57.033Z,0.00
2018-08-13T01:53:57.022Z,0.00
2018-08-13T01:54:57.005Z,0.00
2018-08-13T01:55:57.002Z,0.00
2018-08-13T01:56:56.989Z,0.00
2018-08-13T01:57:56.981Z,0.00
2018-08-13T01:58:56.963Z,0.00
2018-08-13T01:59:56.966Z,0.00
2018-08-13T02:00:56.938Z,0.00
2018-08-13T02:01:56.931Z,0.00
2018-08-13T02:02:56.916Z,0.00
2018-08-13T02:03:56.907Z,0.00
2018-08-13T02:04:56.892Z,0.00
2018-08-13T02:05:56.882Z,0.00
2018-08-13T02:06:56.873Z,0.00
2018-08-13T02:07:56.863Z,0.00
2018-08-13T02:08:56.846Z,0.00
2018-08-13T02:09:56.842Z,0.00
2018-08-13T02:10:56.824Z,0.00
2018-08-13T02:11:56.814Z,0.00
2018-08-13T02:12:56.801Z,0.00
2018-08-13T02:13:56.795Z,0.00
2018-08-13T02:14:56.777Z,0.00
2018-08-13T02:15:56.768Z,0.00
2018-08-13T02:16:56.757Z,0.00
2018-08-13T02:17:56.747Z,0.00
2018-08-13T02:18:56.739Z,0.00
2018-08-13T02:19:56.724Z,0.00
2018-08-13T02:20:56.708Z,0.00
2018-08-13T02:21:56.702Z,0.00
2018-08-13T02:22:56.687Z,0.00
2018-08-13T02:23:56.680Z,0.00
2018-08-13T02:24:56.664Z,0.00
2018-08-13T02:25:56.652Z,0.00
2018-08-13T02:26:56.650Z,0.00
2018-08-13T02:27:56.628Z,0.00
2018-08-13T02:28:56.616Z,0.00
2018-08-13T02:29:56.607Z,0.00
2018-08-13T02:30:56.597Z,0.00
2018-08-13T02:31:56.582Z,0.00
2018-08-13T02:32:56.580Z,0.00
2018-08-13T02:33:56.560Z,0.00
2018-08-13T02:34:56.551Z,0.00
2018-08-13T02:35:56.537Z,0.00
2018-08-13T02:36:56.526Z,0.00
2018-08-13T02:37:56.515Z,0.00
2018-08-13T02:38:56.504Z,0.00
2018-08-13T02:39:56.492Z,0.00
2018-08-13T02:40:56.480Z,0.00
2018-08-13T02:41:56.471Z,0.00
2018-08-13T02:42:56.457Z,0.00
2018-08-13T02:43:56.446Z,0.00
2018-08-13T02:44:56.434Z,0.00
2018-08-13T02:45:56.424Z,0.00
2018-08-13T02:46:56.411Z,0.00
2018-08-13T02:47:56.401Z,0.00
2018-08-13T02:48:56.392Z,0.00
2018-08-13T02:49:56.379Z,0.00
2018-08-13T02:50:56.366Z,0.00
2018-08-13T02:51:56.368Z,0.00
2018-08-13T02:52:56.344Z,0.00
2018-08-13T02:53:56.331Z,0.00
2018-08-13T02:54:56.333Z,0.00
2018-08-13T02:55:56.308Z,0.00
2018-08-13T02:56:56.304Z,0.00
2018-08-13T02:57:56.309Z,0.00
2018-08-13T02:58:56.270Z,0.00
2018-08-13T02:59:56.261Z,0.00
2018-08-13T03:00:56.248Z,0.00
2018-08-13T03:01:56.241Z,0.00
2018-08-13T03:02:56.225Z,0.00
2018-08-13T03:03:56.214Z,0.00
2018-08-13T03:04:56.202Z,0.00
2018-08-13T03:05:56.191Z,0.00
2018-08-13T03:06:56.180Z,0.00
2018-08-13T03:07:56.167Z,0.00
2018-08-13T03:08:56.164Z,0.00
2018-08-13T03:09:56.145Z,0.00
2018-08-13T03:10:56.136Z,0.00
2018-08-13T03:11:56.123Z,0.00
2018-08-13T03:12:56.107Z,0.00
2018-08-13T03:13:56.101Z,0.00
2018-08-13T03:14:56.088Z,0.00
2018-08-13T03:15:56.072Z,0.00
2018-08-13T03:16:56.066Z,0.00
2018-08-13T03:17:56.055Z,0.00
2018-08-13T03:18:56.041Z,0.00
2018-08-13T03:19:56.027Z,0.00
2018-08-13T03:20:56.014Z,0.00
2018-08-13T03:21:56.007Z,0.00
2018-08-13T03:22:55.994Z,0.00
2018-08-13T03:23:55.981Z,0.00
2018-08-13T03:24:55.971Z,0.00
2018-08-13T03:25:55.962Z,0.00
2018-08-13T03:26:55.946Z,0.00
2018-08-13T03:27:55.937Z,0.00
2018-08-13T03:28:55.923Z,0.00
2018-08-13T03:29:55.912Z,0.00
2018-08-13T03:30:55.901Z,0.00
2018-08-13T03:31:55.890Z,0.00
2018-08-13T03:32:55.877Z,0.00
2018-08-13T03:33:55.867Z,0.00
2018-08-13T03:34:55.859Z,0.00
2018-08-13T03:35:55.841Z,0.00
2018-08-13T03:36:55.830Z,0.00
2018-08-13T03:37:55.820Z,0.00
2018-08-13T03:38:55.814Z,0.00
2018-08-13T03:39:55.795Z,0.00
2018-08-13T03:40:55.848Z,0.00
2018-08-13T03:41:55.771Z,0.00
2018-08-13T03:42:55.761Z,0.00
2018-08-13T03:43:55.750Z,0.00
2018-08-13T03:44:55.741Z,4.00
2018-08-13T03:45:55.725Z,4.00
2018-08-13T03:46:55.718Z,0.00
2018-08-13T03:47:55.701Z,0.00
2018-08-13T03:48:55.694Z,4.00
2018-08-13T03:49:55.678Z,4.00
2018-08-13T03:50:55.666Z,0.00
2018-08-13T03:51:55.658Z,4.00
2018-08-13T03:52:55.647Z,4.00
2018-08-13T03:53:55.682Z,4.00
2018-08-13T03:54:55.620Z,8.00
2018-08-13T03:55:55.612Z,8.00
2018-08-13T03:56:55.599Z,8.00
2018-08-13T03:57:55.587Z,12.00
2018-08-13T03:58:55.575Z,12.00
2018-08-13T03:59:55.564Z,12.00
2018-08-13T04:00:55.561Z,12.00
2018-08-13T04:01:55.544Z,16.00
2018-08-13T04:02:55.530Z,20.00
2018-08-13T04:03:55.520Z,24.00
2018-08-13T04:04:55.507Z,28.00
2018-08-13T04:05:55.504Z,32.00
2018-08-13T04:06:55.487Z,32.00
2018-08-13T04:07:55.471Z,32.00
2018-08-13T04:08:55.462Z,36.00
2018-08-13T04:09:55.451Z,44.00
2018-08-13T04:10:55.439Z,48.00
2018-08-13T04:11:55.425Z,52.00
2018-08-13T04:12:55.447Z,52.00
2018-08-13T04:13:55.401Z,56.00
2018-08-13T04:14:55.390Z,56.00
2018-08-13T04:15:55.385Z,60.00
2018-08-13T04:16:55.367Z,64.00
2018-08-13T04:17:55.356Z,68.00
2018-08-13T04:18:55.344Z,68.00
2018-08-13T04:19:55.332Z,80.00
2018-08-13T04:20:55.321Z,84.00
2018-08-13T04:21:55.311Z,92.00
2018-08-13T04:22:55.299Z,104.00
2018-08-13T04:23:55.285Z,116.00
2018-08-13T04:24:55.275Z,128.00
2018-08-13T04:25:55.262Z,136.00
2018-08-13T04:26:55.250Z,140.00
2018-08-13T04:27:55.240Z,148.00
2018-08-13T04:28:55.233Z,160.00
2018-08-13T04:29:55.217Z,172.00
2018-08-13T04:30:55.207Z,188.00
2018-08-13T04:31:55.193Z,208.00
2018-08-13T04:32:55.181Z,232.00
2018-08-13T04:33:55.169Z,260.00
2018-08-13T04:34:55.157Z,296.00
2018-08-13T04:35:55.146Z,340.00
2018-08-13T04:36:55.137Z,388.00
2018-08-13T04:37:55.126Z,452.00
2018-08-13T04:38:55.116Z,516.00
2018-08-13T04:39:55.098Z,596.00
2018-08-13T04:40:55.089Z,684.00
2018-08-13T04:41:55.075Z,768.00
2018-08-13T04:42:55.063Z,840.00
2018-08-13T04:43:55.053Z,900.00
2018-08-13T04:44:55.045Z,944.00
2018-08-13T04:45:55.034Z,992.00
2018-08-13T04:46:55.017Z,1004.00
2018-08-13T04:47:55.005Z,960.00
2018-08-13T04:48:54.994Z,936.00
2018-08-13T04:49:54.987Z,936.00
2018-08-13T04:50:54.972Z,908.00
2018-08-13T04:51:54.963Z,884.00
2018-08-13T04:52:54.951Z,860.00
2018-08-13T04:53:54.936Z,828.00
2018-08-13T04:54:54.925Z,780.00
2018-08-13T04:55:54.915Z,732.00
2018-08-13T04:56:54.905Z,668.00
2018-08-13T04:57:54.893Z,620.00
2018-08-13T04:58:54.927Z,572.00
2018-08-13T04:59:54.877Z,508.00
2018-08-13T05:00:54.861Z,472.00
2018-08-13T05:01:54.859Z,444.00
2018-08-13T05:02:54.832Z,416.00
2018-08-13T05:03:54.825Z,372.00
2018-08-13T05:04:54.809Z,336.00
2018-08-13T05:05:54.799Z,312.00
2018-08-13T05:06:54.786Z,296.00
2018-08-13T05:07:54.774Z,284.00
2018-08-13T05:08:54.774Z,276.00
2018-08-13T05:09:54.752Z,276.00
2018-08-13T05:10:54.743Z,280.00
2018-08-13T05:11:54.729Z,304.00
2018-08-13T05:12:54.720Z,324.00
2018-08-13T05:13:54.706Z,336.00
2018-08-13T05:14:54.696Z,376.00
2018-08-13T05:15:54.682Z,432.00
2018-08-13T05:16:54.675Z,472.00
2018-08-13T05:17:54.662Z,496.00
2018-08-13T05:18:54.655Z,516.00
2018-08-13T05:19:54.637Z,556.00
2018-08-13T05:20:54.625Z,596.00
2018-08-13T05:21:54.626Z,624.00
2018-08-13T05:22:54.608Z,640.00
2018-08-13T05:23:54.592Z,652.00
2018-08-13T05:24:54.586Z,668.00
2018-08-13T05:25:54.571Z,720.00
2018-08-13T05:26:54.558Z,796.00
2018-08-13T05:27:54.545Z,856.00
2018-08-13T05:28:54.539Z,880.00
2018-08-13T05:29:54.540Z,880.00
2018-08-13T05:30:54.512Z,864.00
2018-08-13T05:31:54.504Z,836.00
2018-08-13T05:32:54.488Z,800.00
2018-08-13T05:33:54.483Z,752.00
2018-08-13T05:34:54.477Z,720.00
2018-08-13T05:35:54.455Z,704.00
2018-08-13T05:36:54.443Z,700.00
2018-08-13T05:37:54.433Z,696.00
2018-08-13T05:38:54.421Z,696.00
2018-08-13T05:39:54.410Z,704.00
2018-08-13T05:40:54.402Z,712.00
2018-08-13T05:41:54.387Z,716.00
2018-08-13T05:42:54.375Z,728.00
2018-08-13T05:43:54.363Z,740.00
2018-08-13T05:44:54.354Z,748.00
2018-08-13T05:45:54.343Z,752.00
2018-08-13T05:46:54.329Z,748.00
2018-08-13T05:47:54.328Z,744.00
2018-08-13T05:48:54.307Z,748.00
2018-08-13T05:49:54.301Z,752.00
2018-08-13T05:50:54.282Z,756.00
2018-08-13T05:51:54.278Z,780.00
2018-08-13T05:52:54.324Z,812.00
2018-08-13T05:53:54.255Z,844.00
2018-08-13T05:54:54.238Z,880.00
2018-08-13T05:55:54.231Z,916.00
2018-08-13T05:56:54.213Z,960.00
2018-08-13T05:57:54.205Z,1004.00
2018-08-13T05:58:54.191Z,1044.00
2018-08-13T05:59:54.203Z,1072.00
2018-08-13T06:00:54.170Z,1076.00
2018-08-13T06:01:54.160Z,1068.00
2018-08-13T06:02:54.172Z,1056.00
2018-08-13T06:03:54.136Z,1036.00
2018-08-13T06:04:54.128Z,1028.00
2018-08-13T06:05:54.120Z,1040.00
2018-08-13T06:06:54.102Z,1056.00
2018-08-13T06:07:54.090Z,1064.00
2018-08-13T06:08:54.081Z,1072.00
2018-08-13T06:09:54.067Z,1076.00
2018-08-13T06:10:54.056Z,1080.00
2018-08-13T06:11:54.048Z,1092.00
2018-08-13T06:12:54.034Z,1120.00
2018-08-13T06:13:54.022Z,1152.00
2018-08-13T06:14:54.010Z,1172.00
2018-08-13T06:15:54.000Z,1200.00
2018-08-13T06:16:53.988Z,1224.00
2018-08-13T06:17:53.974Z,1260.00
2018-08-13T06:18:53.969Z,1324.00
2018-08-13T06:19:53.954Z,1416.00
2018-08-13T06:20:53.942Z,1504.00
2018-08-13T06:21:53.931Z,1588.00
2018-08-13T06:22:53.917Z,1684.00
2018-08-13T06:23:53.907Z,1768.00
2018-08-13T06:24:53.894Z,1828.00
2018-08-13T06:25:53.887Z,1856.00
2018-08-13T06:26:53.872Z,1884.00
2018-08-13T06:27:53.865Z,1920.00
2018-08-13T06:28:53.850Z,1948.00
2018-08-13T06:29:53.840Z,1948.00
2018-08-13T06:30:53.837Z,1944.00
2018-08-13T06:31:53.819Z,1924.00
2018-08-13T06:32:53.807Z,1952.00
2018-08-13T06:33:53.822Z,2016.00
2018-08-13T06:34:53.809Z,2024.00
2018-08-13T06:35:53.771Z,1908.00
2018-08-13T06:36:53.759Z,1636.00
2018-08-13T06:37:53.750Z,1392.00
2018-08-13T06:38:53.738Z,1292.00
2018-08-13T06:39:53.726Z,1304.00
2018-08-13T06:40:53.714Z,1420.00
2018-08-13T06:41:53.707Z,1568.00
2018-08-13T06:42:53.696Z,1672.00
2018-08-13T06:43:53.686Z,1708.00
2018-08-13T06:44:53.674Z,1744.00
2018-08-13T06:45:53.659Z,1820.00
2018-08-13T06:46:53.646Z,1820.00
2018-08-13T06:47:53.637Z,1716.00
2018-08-13T06:48:53.625Z,1592.00
2018-08-13T06:49:53.613Z,1588.00
2018-08-13T06:50:53.604Z,1776.00
2018-08-13T06:51:53.589Z,1896.00
2018-08-13T06:52:53.579Z,1860.00
2018-08-13T06:53:53.580Z,1764.00
2018-08-13T06:54:53.557Z,1716.00
2018-08-13T06:55:53.547Z,1768.00
2018-08-13T06:56:53.534Z,1836.00
2018-08-13T06:57:53.527Z,1824.00
2018-08-13T06:58:53.516Z,1720.00
2018-08-13T06:59:53.501Z,1712.00
2018-08-13T07:00:53.553Z,1844.00
2018-08-13T07:01:53.478Z,1928.00
2018-08-13T07:02:53.464Z,1788.00
2018-08-13T07:03:53.459Z,1668.00
2018-08-13T07:04:53.447Z,1632.00
2018-08-13T07:05:53.434Z,1620.00
2018-08-13T07:06:53.421Z,1648.00
2018-08-13T07:07:53.413Z,1752.00
2018-08-13T07:08:53.399Z,1828.00
2018-08-13T07:09:53.396Z,1844.00
2018-08-13T07:10:53.385Z,1908.00
2018-08-13T07:11:53.366Z,1964.00
2018-08-13T07:12:53.357Z,1812.00
2018-08-13T07:13:53.344Z,1644.00
2018-08-13T07:14:53.330Z,1596.00
2018-08-13T07:15:53.331Z,1624.00
2018-08-13T07:16:53.312Z,1664.00
2018-08-13T07:17:53.297Z,1688.00
2018-08-13T07:18:53.287Z,1672.00
2018-08-13T07:19:53.274Z,1604.00
2018-08-13T07:20:53.265Z,1496.00
2018-08-13T07:21:53.261Z,1348.00
2018-08-13T07:22:53.240Z,1240.00
2018-08-13T07:23:53.233Z,1252.00
2018-08-13T07:24:53.219Z,1300.00
2018-08-13T07:25:53.208Z,1312.00
2018-08-13T07:26:53.199Z,1340.00
2018-08-13T07:27:53.291Z,1356.00
2018-08-13T07:28:53.182Z,1344.00
2018-08-13T07:29:53.161Z,1356.00
2018-08-13T07:30:53.152Z,1372.00
2018-08-13T07:31:53.138Z,1360.00
2018-08-13T07:32:53.127Z,1380.00
2018-08-13T07:33:53.116Z,1356.00
2018-08-13T07:34:53.111Z,1356.00
2018-08-13T07:35:53.091Z,1360.00
2018-08-13T07:36:53.082Z,1368.00
2018-08-13T07:37:53.075Z,1396.00
2018-08-13T07:38:53.104Z,1420.00
2018-08-13T07:39:53.048Z,1392.00
2018-08-13T07:40:53.040Z,1376.00
2018-08-13T07:41:53.027Z,1424.00
2018-08-13T07:42:53.016Z,1452.00
2018-08-13T07:43:53.001Z,1488.00
2018-08-13T07:44:52.989Z,1496.00
2018-08-13T07:45:52.984Z,1496.00
2018-08-13T07:46:52.968Z,1464.00
2018-08-13T07:47:52.957Z,1468.00
2018-08-13T07:48:52.948Z,1480.00
2018-08-13T07:49:52.945Z,1472.00
2018-08-13T07:50:52.921Z,1488.00
2018-08-13T07:51:53.004Z,1532.00
2018-08-13T07:52:52.902Z,1592.00
2018-08-13T07:53:52.898Z,1752.00
2018-08-13T07:54:52.876Z,2004.00
2018-08-13T07:55:52.866Z,2292.00
2018-08-13T07:56:52.851Z,2604.00
2018-08-13T07:57:52.843Z,2896.00
2018-08-13T07:58:52.832Z,3180.00
2018-08-13T07:59:52.870Z,3408.00
2018-08-13T08:00:52.811Z,3504.00
2018-08-13T08:01:52.794Z,3532.00
2018-08-13T08:02:52.785Z,3568.00
2018-08-13T08:03:52.776Z,3796.00
2018-08-13T08:04:52.761Z,4112.00
2018-08-13T08:05:52.754Z,4592.00
2018-08-13T08:06:52.752Z,5232.00
2018-08-13T08:07:52.728Z,5700.00
2018-08-13T08:08:52.718Z,6260.00
2018-08-13T08:09:53.281Z,5892.00
2018-08-13T08:10:52.695Z,6900.00
2018-08-13T08:11:52.788Z,9108.00
2018-08-13T08:12:52.753Z,5368.00
2018-08-13T08:13:52.661Z,8220.00
2018-08-13T08:14:52.653Z,6872.00
2018-08-13T08:15:52.652Z,6232.00
2018-08-13T08:16:52.637Z,6836.00
2018-08-13T08:17:52.631Z,9504.00
2018-08-13T08:18:52.610Z,10276.00
2018-08-13T08:19:52.615Z,20992.00
2018-08-13T08:20:52.598Z,20384.00
2018-08-13T08:21:52.584Z,11808.00
2018-08-13T08:22:52.576Z,9176.00
2018-08-13T08:23:52.558Z,9920.00
2018-08-13T08:24:52.549Z,15776.00
2018-08-13T08:25:52.538Z,10288.00
2018-08-13T08:26:52.536Z,9884.00
2018-08-13T08:27:52.530Z,8320.00
2018-08-13T08:28:52.513Z,8792.00
2018-08-13T08:29:52.501Z,5892.00
2018-08-13T08:30:52.489Z,4516.00
2018-08-13T08:31:52.487Z,4104.00
2018-08-13T08:32:52.472Z,4156.00
2018-08-13T08:33:52.459Z,4176.00
2018-08-13T08:34:52.480Z,4076.00
2018-08-13T08:35:52.436Z,3644.00
2018-08-13T08:36:52.424Z,3264.00
2018-08-13T08:37:52.423Z,3120.00
2018-08-13T08:38:52.404Z,3000.00
2018-08-13T08:39:52.393Z,2896.00
2018-08-13T08:40:52.434Z,2900.00
2018-08-13T08:41:52.373Z,2928.00
2018-08-13T08:42:52.359Z,2984.00
2018-08-13T08:43:52.350Z,2604.00
2018-08-13T08:44:52.340Z,2376.00
2018-08-13T08:45:52.356Z,2232.00
2018-08-13T08:46:52.317Z,2136.00
2018-08-13T08:47:52.305Z,2136.00
2018-08-13T08:48:52.296Z,2304.00
2018-08-13T08:49:52.285Z,2520.00
2018-08-13T08:50:52.273Z,2688.00
2018-08-13T08:51:52.261Z,2748.00
2018-08-13T08:52:52.253Z,2788.00
2018-08-13T08:53:52.247Z,2588.00
2018-08-13T08:54:52.229Z,2464.00
2018-08-13T08:55:52.222Z,2472.00
2018-08-13T08:56:52.208Z,2464.00
2018-08-13T08:57:52.197Z,2428.00
2018-08-13T08:58:52.184Z,2272.00
2018-08-13T08:59:52.174Z,2136.00
2018-08-13T09:00:52.165Z,1960.00
2018-08-13T09:01:52.153Z,1888.00
2018-08-13T09:02:52.142Z,1924.00
2018-08-13T09:03:52.134Z,1956.00
2018-08-13T09:04:52.119Z,2036.00
2018-08-13T09:05:52.123Z,2208.00
2018-08-13T09:06:52.108Z,2504.00
2018-08-13T09:07:52.083Z,2712.00
2018-08-13T09:08:52.077Z,2728.00
2018-08-13T09:09:52.062Z,2560.00
2018-08-13T09:10:52.054Z,2404.00
2018-08-13T09:11:52.040Z,2376.00
2018-08-13T09:12:52.032Z,2464.00
2018-08-13T09:13:52.020Z,2576.00
2018-08-13T09:14:52.008Z,2784.00
2018-08-13T09:15:51.997Z,2984.00
2018-08-13T09:16:51.986Z,3124.00
2018-08-13T09:17:51.976Z,3068.00
2018-08-13T09:18:51.961Z,2928.00
2018-08-13T09:19:51.953Z,2832.00
2018-08-13T09:20:51.943Z,2708.00
2018-08-13T09:21:51.929Z,2764.00
2018-08-13T09:22:51.926Z,2956.00
2018-08-13T09:23:51.916Z,3224.00
2018-08-13T09:24:51.897Z,3320.00
2018-08-13T09:25:51.890Z,3216.00
2018-08-13T09:26:51.874Z,3092.00
2018-08-13T09:27:51.865Z,2828.00
2018-08-13T09:28:51.858Z,2660.00
2018-08-13T09:29:51.842Z,2596.00
2018-08-13T09:30:51.831Z,2432.00
2018-08-13T09:31:51.820Z,2260.00
2018-08-13T09:32:51.812Z,2168.00
2018-08-13T09:33:51.798Z,2240.00
2018-08-13T09:34:51.787Z,2404.00
2018-08-13T09:35:51.781Z,2576.00
2018-08-13T09:36:51.779Z,2748.00
2018-08-13T09:37:51.756Z,2872.00
2018-08-13T09:38:51.748Z,2900.00
2018-08-13T09:39:51.781Z,3052.00
2018-08-13T09:40:51.740Z,3104.00
2018-08-13T09:41:51.716Z,2980.00
2018-08-13T09:42:51.716Z,2724.00
2018-08-13T09:43:51.692Z,2604.00
2018-08-13T09:44:51.680Z,2528.00
2018-08-13T09:45:51.667Z,2528.00
2018-08-13T09:46:51.661Z,2508.00
2018-08-13T09:47:51.649Z,2580.00
2018-08-13T09:48:51.638Z,2732.00
2018-08-13T09:49:51.628Z,2704.00
2018-08-13T09:50:51.612Z,2668.00
2018-08-13T09:51:51.604Z,2828.00
2018-08-13T09:52:51.592Z,3212.00
2018-08-13T09:53:51.707Z,3472.00
2018-08-13T09:54:51.570Z,3932.00
2018-08-13T09:55:51.560Z,4612.00
2018-08-13T09:56:51.554Z,4652.00
2018-08-13T09:57:51.547Z,4564.00
2018-08-13T09:58:51.525Z,4432.00
2018-08-13T09:59:51.514Z,4580.00
2018-08-13T10:00:51.515Z,4956.00
2018-08-13T10:01:51.496Z,5068.00
2018-08-13T10:02:51.488Z,6144.00
2018-08-13T10:03:51.470Z,11752.00
2018-08-13T10:04:51.463Z,12796.00
2018-08-13T10:05:51.454Z,13320.00
2018-08-13T10:06:51.440Z,10856.00
2018-08-13T10:07:51.431Z,10432.00
2018-08-13T10:08:51.425Z,8296.00
2018-08-13T10:09:51.413Z,7904.00
2018-08-13T10:10:51.425Z,9596.00
2018-08-13T10:11:51.389Z,8324.00
2018-08-13T10:12:51.382Z,10180.00
2018-08-13T10:13:51.385Z,15808.00
2018-08-13T10:14:51.357Z,16096.00
2018-08-13T10:15:51.350Z,16480.00
2018-08-13T10:16:51.380Z,15168.00
2018-08-13T10:17:51.345Z,10652.00
2018-08-13T10:18:51.331Z,11456.00
2018-08-13T10:19:51.317Z,10820.00
2018-08-13T10:20:51.305Z,9360.00
2018-08-13T10:21:51.300Z,10016.00
2018-08-13T10:22:51.289Z,16288.00
2018-08-13T10:23:51.288Z,12152.00
2018-08-13T10:24:51.273Z,16704.00
2018-08-13T10:25:51.272Z,16960.00
2018-08-13T10:26:51.259Z,15456.00
2018-08-13T10:27:51.254Z,16288.00
2018-08-13T10:28:51.245Z,15904.00
2018-08-13T10:29:51.287Z,12812.00
2018-08-13T10:30:51.234Z,9976.00
2018-08-13T10:31:51.224Z,10080.00
2018-08-13T10:32:51.219Z,12220.00
2018-08-13T10:33:51.212Z,10576.00
2018-08-13T10:34:51.211Z,9816.00
2018-08-13T10:35:51.194Z,9072.00
2018-08-13T10:36:51.186Z,9284.00
2018-08-13T10:37:51.181Z,13628.00
2018-08-13T10:38:51.172Z,11940.00
2018-08-13T10:39:51.176Z,9252.00
2018-08-13T10:40:51.160Z,8580.00
2018-08-13T10:41:51.157Z,9720.00
2018-08-13T10:42:51.148Z,12004.00
2018-08-13T10:43:51.143Z,12688.00
2018-08-13T10:44:51.166Z,12960.00
2018-08-13T10:45:51.124Z,12608.00
2018-08-13T10:46:51.118Z,12840.00
2018-08-13T10:47:51.111Z,13732.00
2018-08-13T10:48:51.103Z,10724.00
2018-08-13T10:49:51.109Z,10296.00
2018-08-13T10:50:51.090Z,8904.00
2018-08-13T10:51:51.088Z,8536.00
2018-08-13T10:52:51.084Z,7516.00
2018-08-13T10:53:51.070Z,7948.00
2018-08-13T10:54:51.062Z,8632.00
2018-08-13T10:55:51.062Z,8768.00
2018-08-13T10:56:51.053Z,7856.00
2018-08-13T10:57:51.051Z,8168.00
2018-08-13T10:58:51.033Z,8784.00
2018-08-13T10:59:51.024Z,8784.00
2018-08-13T11:00:51.027Z,9104.00
2018-08-13T11:01:51.025Z,10744.00
2018-08-13T11:02:51.029Z,10324.00
2018-08-13T11:03:50.999Z,9476.00
2018-08-13T11:04:50.992Z,8380.00
2018-08-13T11:05:50.986Z,8068.00
2018-08-13T11:06:50.973Z,7644.00
2018-08-13T11:07:50.968Z,7536.00
2018-08-13T11:08:50.959Z,7804.00
2018-08-13T11:09:51.002Z,7732.00
2018-08-13T11:10:50.945Z,10556.00
2018-08-13T11:11:50.939Z,10876.00
2018-08-13T11:12:50.932Z,15456.00
2018-08-13T11:13:50.930Z,11372.00
2018-08-13T11:14:50.914Z,15168.00
2018-08-13T11:15:50.905Z,15264.00
2018-08-13T11:16:50.900Z,14656.00
2018-08-13T11:17:50.893Z,12256.00
2018-08-13T11:18:50.885Z,15168.00
2018-08-13T11:19:50.876Z,14624.00
2018-08-13T11:20:50.875Z,12464.00
2018-08-13T11:21:51.017Z,11132.00
2018-08-13T11:22:50.868Z,12020.00
2018-08-13T11:23:50.849Z,9932.00
2018-08-13T11:24:50.843Z,9576.00
2018-08-13T11:25:50.836Z,10300.00
2018-08-13T11:26:50.838Z,9248.00
2018-08-13T11:27:50.826Z,8460.00
2018-08-13T11:28:50.824Z,8672.00
2018-08-13T11:29:50.809Z,9024.00
2018-08-13T11:30:50.802Z,10044.00
2018-08-13T11:31:50.796Z,8524.00
2018-08-13T11:32:50.795Z,9604.00
2018-08-13T11:33:50.792Z,10816.00
2018-08-13T11:34:50.833Z,8796.00
2018-08-13T11:35:50.764Z,8900.00
2018-08-13T11:36:50.758Z,9016.00
2018-08-13T11:37:50.760Z,10308.00
2018-08-13T11:38:50.744Z,11476.00
2018-08-13T11:39:50.735Z,9604.00
2018-08-13T11:40:50.745Z,8476.00
2018-08-13T11:41:50.737Z,8504.00
2018-08-13T11:42:50.726Z,8160.00
2018-08-13T11:43:50.718Z,7964.00
2018-08-13T11:44:50.704Z,8224.00
2018-08-13T11:45:50.692Z,6956.00
2018-08-13T11:46:50.689Z,6620.00
2018-08-13T11:47:50.678Z,6472.00
2018-08-13T11:48:50.673Z,6552.00
2018-08-13T11:49:50.670Z,9424.00
2018-08-13T11:50:50.662Z,7796.00
2018-08-13T11:51:50.651Z,6952.00
2018-08-13T11:52:50.647Z,7256.00
2018-08-13T11:53:50.639Z,8080.00
2018-08-13T11:54:50.626Z,5980.00
2018-08-13T11:55:50.628Z,5600.00
2018-08-13T11:56:50.612Z,5884.00
2018-08-13T11:57:50.604Z,6392.00
2018-08-13T11:58:50.595Z,6492.00
2018-08-13T11:59:50.594Z,7104.00
2018-08-13T12:00:50.582Z,7460.00
2018-08-13T12:01:50.575Z,7940.00
2018-08-13T12:02:50.572Z,7528.00
2018-08-13T12:03:50.558Z,9584.00
2018-08-13T12:04:50.561Z,12820.00
2018-08-13T12:05:50.542Z,9068.00
2018-08-13T12:06:50.535Z,12260.00
2018-08-13T12:07:50.532Z,8156.00
2018-08-13T12:08:50.536Z,7888.00
2018-08-13T12:09:50.523Z,14208.00
2018-08-13T12:10:50.508Z,10292.00
2018-08-13T12:11:50.504Z,13824.00
2018-08-13T12:12:50.501Z,9800.00
2018-08-13T12:13:50.486Z,6172.00
2018-08-13T12:14:50.486Z,6524.00
2018-08-13T12:15:50.470Z,6208.00
2018-08-13T12:16:50.464Z,5600.00
2018-08-13T12:17:50.461Z,5292.00
2018-08-13T12:18:50.447Z,5908.00
2018-08-13T12:19:50.444Z,5808.00
2018-08-13T12:20:50.436Z,7724.00
2018-08-13T12:21:50.433Z,5152.00
2018-08-13T12:22:50.419Z,4692.00
2018-08-13T12:23:50.415Z,4324.00
2018-08-13T12:24:50.404Z,4408.00
2018-08-13T12:25:50.402Z,4004.00
2018-08-13T12:26:50.391Z,3452.00
2018-08-13T12:27:50.390Z,3184.00
2018-08-13T12:28:50.372Z,2964.00
2018-08-13T12:29:50.368Z,3004.00